createdAt,value
2019-01-29T00:01:07.331Z,58.30
2019-01-29T00:03:36.559Z,58.20
2019-01-29T00:06:05.752Z,58.14
2019-01-29T00:08:34.911Z,58.23
2019-01-29T00:11:04.065Z,58.11
2019-01-29T00:13:33.147Z,58.17
2019-01-29T00:16:02.337Z,58.28
2019-01-29T00:18:31.418Z,58.18
2019-01-29T00:21:00.570Z,58.28
2019-01-29T00:23:29.668Z,58.26
2019-01-29T00:25:59.225Z,58.25
2019-01-29T00:28:28.932Z,58.18
2019-01-29T00:31:08.110Z,58.01
2019-01-29T00:33:37.776Z,58.08
2019-01-29T00:36:07.045Z,58.20
2019-01-29T00:38:37.058Z,58.10
2019-01-29T00:41:06.295Z,58.09
2019-01-29T00:43:36.380Z,57.98
2019-01-29T00:46:06.750Z,58.14
2019-01-29T00:48:38.746Z,58.13
2019-01-29T00:51:08.687Z,58.11
2019-01-29T00:53:38.126Z,58.12
2019-01-29T00:56:11.321Z,58.11
2019-01-29T00:58:41.034Z,58.09
2019-01-29T01:01:10.558Z,58.05
2019-01-29T01:03:40.045Z,58.06
2019-01-29T01:06:09.352Z,58.08
2019-01-29T01:08:40.249Z,58.09
2019-01-29T01:11:10.157Z,58.08
2019-01-29T01:13:39.878Z,58.10
2019-01-29T01:16:09.305Z,58.06
2019-01-29T01:18:41.179Z,58.07
2019-01-29T01:21:17.574Z,58.10
2019-01-29T01:23:46.960Z,58.06
2019-01-29T01:26:18.439Z,57.93
2019-01-29T01:28:47.855Z,57.95
2019-01-29T01:31:19.341Z,58.04
2019-01-29T01:33:51.659Z,58.04
2019-01-29T01:36:21.470Z,58.05
2019-01-29T01:38:50.763Z,58.05
2019-01-29T01:41:21.022Z,57.93
2019-01-29T01:43:50.820Z,57.99
2019-01-29T01:46:20.397Z,58.02
2019-01-29T01:48:50.382Z,58.02
2019-01-29T01:51:20.704Z,58.00
2019-01-29T01:53:50.138Z,57.99
2019-01-29T01:56:21.282Z,57.96
2019-01-29T01:58:50.724Z,57.94
2019-01-29T02:01:20.065Z,57.89
2019-01-29T02:03:49.461Z,57.88
2019-01-29T02:06:18.940Z,57.88
2019-01-29T02:08:48.377Z,57.95
2019-01-29T02:11:17.898Z,57.93
2019-01-29T02:13:47.223Z,57.86
2019-01-29T02:16:19.585Z,57.86
2019-01-29T02:18:48.943Z,57.83
2019-01-29T02:21:18.485Z,57.96
2019-01-29T02:23:48.649Z,57.91
2019-01-29T02:26:17.994Z,57.93
2019-01-29T02:28:47.607Z,57.99
2019-01-29T02:31:17.106Z,57.99
2019-01-29T02:33:46.615Z,58.02
2019-01-29T02:36:19.598Z,58.09
2019-01-29T02:38:48.885Z,58.09
2019-01-29T02:41:18.263Z,58.10
2019-01-29T02:43:52.264Z,58.21
2019-01-29T02:46:28.107Z,58.20
2019-01-29T02:48:57.463Z,58.15
2019-01-29T02:51:26.962Z,58.12
2019-01-29T02:53:59.181Z,58.07
2019-01-29T02:56:35.597Z,58.03
2019-01-29T02:59:09.909Z,57.99
2019-01-29T03:01:42.323Z,58.07
2019-01-29T03:04:11.748Z,58.13
2019-01-29T03:06:43.503Z,58.13
2019-01-29T03:09:12.751Z,58.15
2019-01-29T03:11:42.420Z,58.16
2019-01-29T03:14:11.969Z,58.04
2019-01-29T03:16:41.772Z,58.12
2019-01-29T03:19:13.751Z,58.15
2019-01-29T03:21:47.453Z,58.13
2019-01-29T03:24:22.606Z,58.10
2019-01-29T03:26:56.346Z,57.97
2019-01-29T03:29:28.946Z,58.02
2019-01-29T03:31:58.466Z,58.11
2019-01-29T03:34:33.222Z,58.20
2019-01-29T03:37:07.963Z,58.19
2019-01-29T03:39:37.634Z,58.27
2019-01-29T03:42:06.880Z,58.18
2019-01-29T03:44:36.209Z,58.23
2019-01-29T03:47:05.525Z,58.26
2019-01-29T03:49:40.722Z,58.28
2019-01-29T03:52:10.333Z,58.36
2019-01-29T03:54:40.247Z,58.36
2019-01-29T03:57:10.102Z,58.32
2019-01-29T03:59:40.544Z,58.32
2019-01-29T04:02:10.086Z,58.38
2019-01-29T04:04:45.357Z,58.30
2019-01-29T04:07:19.398Z,58.33
2019-01-29T04:09:49.337Z,58.38
2019-01-29T04:12:21.595Z,58.41
2019-01-29T04:14:52.712Z,58.36
2019-01-29T04:17:24.292Z,58.10
2019-01-29T04:19:53.577Z,58.17
2019-01-29T04:22:23.437Z,58.02
2019-01-29T04:24:53.292Z,57.92
2019-01-29T04:27:26.197Z,58.01
2019-01-29T04:29:55.786Z,57.98
2019-01-29T04:32:24.879Z,58.05
2019-01-29T04:34:53.997Z,58.08
2019-01-29T04:37:23.107Z,58.16
2019-01-29T04:39:52.243Z,58.27
2019-01-29T04:42:21.289Z,58.25
2019-01-29T04:44:50.408Z,58.27
2019-01-29T04:47:19.619Z,58.22
2019-01-29T04:49:53.637Z,58.25
2019-01-29T04:52:27.441Z,58.22
2019-01-29T04:54:57.639Z,58.24
2019-01-29T04:57:32.402Z,58.18
2019-01-29T05:00:06.501Z,58.20
2019-01-29T05:02:36.156Z,58.23
2019-01-29T05:05:08.997Z,58.24
2019-01-29T05:07:39.713Z,58.23
2019-01-29T05:10:13.693Z,58.23
2019-01-29T05:12:44.786Z,58.20
2019-01-29T05:15:15.219Z,58.20
2019-01-29T05:17:44.731Z,58.21
2019-01-29T05:20:16.782Z,58.24
2019-01-29T05:22:46.629Z,58.26
2019-01-29T05:25:16.241Z,58.25
2019-01-29T05:27:45.826Z,58.31
2019-01-29T05:30:20.717Z,58.27
2019-01-29T05:32:54.535Z,58.23
2019-01-29T05:35:26.400Z,58.21
2019-01-29T05:37:56.437Z,58.18
2019-01-29T05:40:31.127Z,58.17
2019-01-29T05:43:03.807Z,58.17
2019-01-29T05:45:40.194Z,58.08
2019-01-29T05:48:09.886Z,58.09
2019-01-29T05:50:39.308Z,58.06
2019-01-29T05:53:08.773Z,57.96
2019-01-29T05:55:41.604Z,57.78
2019-01-29T05:58:11.123Z,57.85
2019-01-29T06:00:44.009Z,57.76
2019-01-29T06:03:13.882Z,57.76
2019-01-29T06:05:43.360Z,57.80
2019-01-29T06:08:12.787Z,57.75
2019-01-29T06:10:42.425Z,57.84
2019-01-29T06:13:12.219Z,57.79
2019-01-29T06:15:41.763Z,57.75
2019-01-29T06:18:11.439Z,57.77
2019-01-29T06:20:41.135Z,57.73
2019-01-29T06:23:10.760Z,57.84
2019-01-29T06:25:41.240Z,57.93
2019-01-29T06:28:17.196Z,57.92
2019-01-29T06:30:46.754Z,58.04
2019-01-29T06:33:16.492Z,57.93
2019-01-29T06:35:48.958Z,57.90
2019-01-29T06:38:27.947Z,57.99
2019-01-29T06:41:02.011Z,57.98
2019-01-29T06:43:35.357Z,57.96
2019-01-29T06:46:05.088Z,57.99
2019-01-29T06:48:34.710Z,57.94
2019-01-29T06:51:06.567Z,57.97
2019-01-29T06:53:41.869Z,57.78
2019-01-29T06:56:11.437Z,57.88
2019-01-29T06:58:41.097Z,57.91
2019-01-29T07:01:12.493Z,58.06
2019-01-29T07:03:44.460Z,58.11
2019-01-29T07:06:14.192Z,58.07
2019-01-29T07:08:43.999Z,58.18
2019-01-29T07:11:13.189Z,58.07
2019-01-29T07:13:42.245Z,58.18
2019-01-29T07:16:30.678Z,58.25
2019-01-29T07:19:18.691Z,58.35
2019-01-29T07:21:47.827Z,58.42
2019-01-29T07:24:16.876Z,58.48
2019-01-29T07:26:46.086Z,58.51
2019-01-29T07:29:15.198Z,58.60
2019-01-29T07:31:44.316Z,58.56
2019-01-29T07:34:13.805Z,58.56
2019-01-29T07:36:43.203Z,58.50
2019-01-29T07:39:13.466Z,58.54
2019-01-29T07:41:43.248Z,58.49
2019-01-29T07:44:12.728Z,58.44
2019-01-29T07:46:42.686Z,58.44
2019-01-29T07:49:12.346Z,58.45
2019-01-29T07:51:42.281Z,58.50
2019-01-29T07:54:11.705Z,58.45
2019-01-29T07:56:46.455Z,58.40
2019-01-29T07:59:15.899Z,58.28
2019-01-29T08:01:45.774Z,58.18
2019-01-29T08:04:15.285Z,58.28
2019-01-29T08:06:45.029Z,58.24
2019-01-29T08:09:14.531Z,58.23
2019-01-29T08:11:43.833Z,58.24
2019-01-29T08:14:13.269Z,58.13
2019-01-29T08:16:42.739Z,58.12
2019-01-29T08:19:15.150Z,58.19
2019-01-29T08:21:46.784Z,58.06
2019-01-29T08:24:15.908Z,58.13
2019-01-29T08:26:45.634Z,58.14
2019-01-29T08:29:15.013Z,58.05
2019-01-29T08:31:45.310Z,58.04
2019-01-29T08:34:15.159Z,58.06
2019-01-29T08:36:44.867Z,57.93
2019-01-29T08:39:14.700Z,57.85
2019-01-29T08:41:44.147Z,57.74
2019-01-29T08:44:14.469Z,57.57
2019-01-29T08:46:50.710Z,57.62
2019-01-29T08:49:19.654Z,57.28
2019-01-29T08:51:48.738Z,57.32
2019-01-29T08:54:17.879Z,56.93
2019-01-29T08:56:47.033Z,56.97
2019-01-29T08:59:16.246Z,57.21
2019-01-29T09:01:45.268Z,57.10
2019-01-29T09:04:15.184Z,56.87
2019-01-29T09:06:44.335Z,57.15
2019-01-29T09:09:13.391Z,57.05
2019-01-29T09:11:42.477Z,56.81
2019-01-29T09:14:11.650Z,56.68
2019-01-29T09:16:40.687Z,56.88
2019-01-29T09:19:09.805Z,56.79
2019-01-29T09:21:38.929Z,56.56
2019-01-29T09:24:08.107Z,56.58
2019-01-29T09:26:37.296Z,56.56
2019-01-29T09:29:06.505Z,56.33
2019-01-29T09:31:35.736Z,56.14
2019-01-29T09:34:04.837Z,55.84
2019-01-29T09:36:34.160Z,55.47
2019-01-29T09:39:05.118Z,55.01
2019-01-29T09:41:34.185Z,55.12
2019-01-29T09:44:03.545Z,54.93
2019-01-29T09:46:32.615Z,54.76
2019-01-29T09:49:01.686Z,54.50
2019-01-29T09:51:31.066Z,54.62
2019-01-29T09:54:00.269Z,54.59
2019-01-29T09:56:29.374Z,54.43
2019-01-29T09:58:58.580Z,54.41
2019-01-29T10:01:27.890Z,53.98
2019-01-29T10:03:57.148Z,54.21
2019-01-29T10:06:26.376Z,54.39
2019-01-29T10:08:55.732Z,54.17
2019-01-29T10:11:24.919Z,54.11
2019-01-29T10:13:54.142Z,54.06
2019-01-29T10:16:23.387Z,53.69
2019-01-29T10:18:52.680Z,53.87
2019-01-29T10:21:21.800Z,53.61
2019-01-29T10:23:50.947Z,53.70
2019-01-29T10:26:20.037Z,53.58
2019-01-29T10:28:49.037Z,53.70
2019-01-29T10:31:18.616Z,53.48
2019-01-29T10:33:48.277Z,53.75
2019-01-29T10:36:17.376Z,53.66
2019-01-29T10:38:46.513Z,53.50
2019-01-29T10:41:15.509Z,53.31
2019-01-29T10:43:44.663Z,52.37
2019-01-29T10:46:13.730Z,52.15
2019-01-29T10:48:42.888Z,52.39
2019-01-29T10:51:11.998Z,52.14
2019-01-29T10:53:41.255Z,51.80
2019-01-29T10:56:12.016Z,51.53
2019-01-29T10:58:41.168Z,50.50
2019-01-29T11:01:10.712Z,48.75
2019-01-29T11:03:40.590Z,47.55
2019-01-29T11:06:09.681Z,47.02
2019-01-29T11:08:38.922Z,46.49
2019-01-29T11:11:08.051Z,46.82
2019-01-29T11:13:37.714Z,46.59
2019-01-29T11:16:07.082Z,46.92
2019-01-29T11:18:36.145Z,47.19
2019-01-29T11:21:05.274Z,47.45
2019-01-29T11:23:34.498Z,47.88
2019-01-29T11:26:03.603Z,47.96
2019-01-29T11:28:32.689Z,47.83
2019-01-29T11:31:02.888Z,47.13
2019-01-29T11:33:31.981Z,47.18
2019-01-29T11:36:01.175Z,47.24
2019-01-29T11:38:30.369Z,46.05
2019-01-29T11:40:59.536Z,45.29
2019-01-29T11:43:28.636Z,44.86
2019-01-29T11:45:57.837Z,44.83
2019-01-29T11:48:26.969Z,45.01
2019-01-29T11:50:56.082Z,45.01
2019-01-29T11:53:25.161Z,45.38
2019-01-29T11:55:54.240Z,41.41
2019-01-29T11:58:23.350Z,38.48
2019-01-29T12:01:11.637Z,39.27
2019-01-29T12:03:40.779Z,39.17
2019-01-29T12:06:09.986Z,39.02
2019-01-29T12:08:39.510Z,37.25
2019-01-29T12:11:09.200Z,34.91
2019-01-29T12:13:38.339Z,33.11
2019-01-29T12:16:07.440Z,31.12
2019-01-29T12:18:37.042Z,29.22
2019-01-29T12:21:06.176Z,27.64
2019-01-29T12:23:39.009Z,25.59
2019-01-29T12:26:13.239Z,24.88
2019-01-29T12:28:39.009Z,24.38
2019-01-29T12:31:08.207Z,23.06
2019-01-29T12:33:37.554Z,22.50
2019-01-29T12:36:07.132Z,21.76
2019-01-29T12:38:36.179Z,20.86
2019-01-29T12:41:05.591Z,22.56
2019-01-29T12:43:34.824Z,23.97
2019-01-29T12:46:04.238Z,25.64
2019-01-29T12:48:33.280Z,26.80
2019-01-29T12:51:05.147Z,27.25
2019-01-29T12:53:38.970Z,27.41
2019-01-29T12:56:08.125Z,27.05
2019-01-29T12:58:37.247Z,27.41
2019-01-29T13:01:06.339Z,27.91
2019-01-29T13:03:35.527Z,28.04
2019-01-29T13:06:04.657Z,28.56
2019-01-29T13:08:33.926Z,29.16
2019-01-29T13:11:03.032Z,29.85
2019-01-29T13:13:32.105Z,30.47
2019-01-29T13:16:01.227Z,30.90
2019-01-29T13:18:30.301Z,31.89
2019-01-29T13:20:59.483Z,32.54
2019-01-29T13:23:28.648Z,32.82
2019-01-29T13:25:57.826Z,33.08
2019-01-29T13:28:27.111Z,33.31
2019-01-29T13:30:56.314Z,33.63
2019-01-29T13:33:25.513Z,34.20
2019-01-29T13:35:54.733Z,34.34
2019-01-29T13:38:23.927Z,34.54
2019-01-29T13:40:53.017Z,34.54
2019-01-29T13:43:22.280Z,34.53
2019-01-29T13:45:51.390Z,34.08
2019-01-29T13:48:20.515Z,34.18
2019-01-29T13:50:55.822Z,34.57
2019-01-29T13:53:25.162Z,34.53
2019-01-29T13:55:54.224Z,35.07
2019-01-29T13:58:23.382Z,35.18
2019-01-29T14:00:52.498Z,35.64
2019-01-29T14:03:22.085Z,35.35
2019-01-29T14:05:51.213Z,35.07
2019-01-29T14:08:20.344Z,35.25
2019-01-29T14:10:49.434Z,35.23
2019-01-29T14:13:18.483Z,35.00
2019-01-29T14:15:52.476Z,34.81
2019-01-29T14:18:23.326Z,34.68
2019-01-29T14:20:52.444Z,34.68
2019-01-29T14:23:21.612Z,34.91
2019-01-29T14:25:50.753Z,35.07
2019-01-29T14:28:19.786Z,35.17
2019-01-29T14:30:49.263Z,35.28
2019-01-29T14:33:18.333Z,35.36
2019-01-29T14:35:48.424Z,35.20
2019-01-29T14:38:55.827Z,35.16
2019-01-29T14:41:24.936Z,35.19
2019-01-29T14:43:56.540Z,35.06
2019-01-29T14:46:25.815Z,35.01
2019-01-29T14:48:54.848Z,35.63
2019-01-29T14:51:23.922Z,35.55
2019-01-29T14:53:53.057Z,35.84
2019-01-29T14:56:22.290Z,35.59
2019-01-29T14:58:51.407Z,35.93
2019-01-29T15:01:20.512Z,36.21
2019-01-29T15:03:49.687Z,36.30
2019-01-29T15:06:18.826Z,36.29
2019-01-29T15:08:47.881Z,36.50
2019-01-29T15:11:16.952Z,36.68
2019-01-29T15:13:45.925Z,36.46
2019-01-29T15:16:29.797Z,36.75
2019-01-29T15:19:11.348Z,36.87
2019-01-29T15:21:40.401Z,36.87
2019-01-29T15:24:09.493Z,37.34
2019-01-29T15:26:38.568Z,37.38
2019-01-29T15:29:07.579Z,37.57
2019-01-29T15:31:36.633Z,37.77
2019-01-29T15:34:05.714Z,37.98
2019-01-29T15:36:34.873Z,38.29
2019-01-29T15:39:05.637Z,38.42
2019-01-29T15:41:34.730Z,38.62
2019-01-29T15:44:03.795Z,38.93
2019-01-29T15:46:32.970Z,39.17
2019-01-29T15:49:02.037Z,39.39
2019-01-29T15:51:33.125Z,39.72
2019-01-29T15:54:02.145Z,40.16
2019-01-29T15:56:31.220Z,40.46
2019-01-29T15:59:00.273Z,40.85
2019-01-29T16:01:32.152Z,41.33
2019-01-29T16:04:01.216Z,41.61
2019-01-29T16:06:30.280Z,42.06
2019-01-29T16:08:59.370Z,42.22
2019-01-29T16:11:28.438Z,42.28
2019-01-29T16:13:57.394Z,42.36
2019-01-29T16:16:26.406Z,42.34
2019-01-29T16:18:55.502Z,42.41
2019-01-29T16:21:24.565Z,42.44
2019-01-29T16:23:56.814Z,42.29
2019-01-29T16:26:25.933Z,42.17
2019-01-29T16:28:56.800Z,42.06
2019-01-29T16:31:26.036Z,42.26
2019-01-29T16:33:55.271Z,42.36
2019-01-29T16:36:24.519Z,42.41
2019-01-29T16:38:53.515Z,42.48
2019-01-29T16:41:22.601Z,42.51
2019-01-29T16:43:51.709Z,42.62
2019-01-29T16:46:20.718Z,42.87
2019-01-29T16:48:49.703Z,42.93
2019-01-29T16:51:18.738Z,43.08
2019-01-29T16:53:47.902Z,43.29
2019-01-29T16:56:16.979Z,43.46
2019-01-29T16:58:46.038Z,43.58
2019-01-29T17:01:17.460Z,43.84
2019-01-29T17:03:50.164Z,44.03
2019-01-29T17:06:19.156Z,44.15
2019-01-29T17:08:48.198Z,44.26
2019-01-29T17:11:17.286Z,44.46
2019-01-29T17:13:46.392Z,44.59
2019-01-29T17:16:15.462Z,44.81
2019-01-29T17:18:44.519Z,44.77
2019-01-29T17:21:13.647Z,44.95
2019-01-29T17:23:42.696Z,44.95
2019-01-29T17:26:11.764Z,45.08
2019-01-29T17:28:40.838Z,45.31
2019-01-29T17:31:09.872Z,45.28
2019-01-29T17:33:40.424Z,45.41
2019-01-29T17:36:17.622Z,45.46
2019-01-29T17:38:46.709Z,45.51
2019-01-29T17:41:15.699Z,45.48
2019-01-29T17:43:44.942Z,45.48
2019-01-29T17:46:13.995Z,45.59
2019-01-29T17:48:43.096Z,45.56
2019-01-29T17:51:12.185Z,45.62
2019-01-29T17:53:41.369Z,45.68
2019-01-29T17:56:10.483Z,45.74
2019-01-29T17:58:39.487Z,45.81
2019-01-29T18:01:10.254Z,45.80
2019-01-29T18:03:39.299Z,45.76
2019-01-29T18:06:08.402Z,45.86
2019-01-29T18:08:37.573Z,45.84
2019-01-29T18:11:06.699Z,45.89
2019-01-29T18:13:35.762Z,45.93
2019-01-29T18:16:04.895Z,45.96
2019-01-29T18:18:33.979Z,46.03
2019-01-29T18:21:03.099Z,46.02
2019-01-29T18:23:32.221Z,46.01
2019-01-29T18:26:01.289Z,46.14
2019-01-29T18:28:30.453Z,46.19
2019-01-29T18:30:59.593Z,46.17
2019-01-29T18:33:28.661Z,46.28
2019-01-29T18:35:57.671Z,46.36
2019-01-29T18:38:26.710Z,46.33
2019-01-29T18:40:56.922Z,46.50
2019-01-29T18:43:26.075Z,46.54
2019-01-29T18:45:55.132Z,46.59
2019-01-29T18:48:24.245Z,46.72
2019-01-29T18:50:53.373Z,46.94
2019-01-29T18:53:22.511Z,47.04
2019-01-29T18:55:51.602Z,47.08
2019-01-29T18:58:20.709Z,47.17
2019-01-29T19:00:54.871Z,47.30
2019-01-29T19:03:20.617Z,47.49
2019-01-29T19:05:49.737Z,47.59
2019-01-29T19:08:18.834Z,47.92
2019-01-29T19:10:47.986Z,48.15
2019-01-29T19:13:16.971Z,48.52
2019-01-29T19:15:45.928Z,48.47
2019-01-29T19:18:15.067Z,48.63
2019-01-29T19:20:44.142Z,48.83
2019-01-29T19:23:13.218Z,48.94
2019-01-29T19:25:42.242Z,49.09
2019-01-29T19:28:21.416Z,49.14
2019-01-29T19:30:42.047Z,49.16
2019-01-29T19:33:11.188Z,49.29
2019-01-29T19:35:40.278Z,49.34
2019-01-29T19:38:09.395Z,49.39
2019-01-29T19:40:40.421Z,49.55
2019-01-29T19:43:09.338Z,49.74
2019-01-29T19:45:38.566Z,49.69
2019-01-29T19:48:08.545Z,49.66
2019-01-29T19:50:37.574Z,49.64
2019-01-29T19:53:06.752Z,49.62
2019-01-29T19:55:36.062Z,49.59
2019-01-29T19:58:09.043Z,49.60
2019-01-29T20:00:40.996Z,49.55
2019-01-29T20:03:10.081Z,49.57
2019-01-29T20:05:39.146Z,49.65
2019-01-29T20:08:08.310Z,49.57
2019-01-29T20:10:37.424Z,49.68
2019-01-29T20:13:06.462Z,49.59
2019-01-29T20:15:35.589Z,49.61
2019-01-29T20:18:04.860Z,49.51
2019-01-29T20:20:40.983Z,49.50
2019-01-29T20:23:10.078Z,49.43
2019-01-29T20:25:39.110Z,49.49
2019-01-29T20:28:08.298Z,49.46
2019-01-29T20:30:38.612Z,49.40
2019-01-29T20:33:07.714Z,49.29
2019-01-29T20:35:36.872Z,49.17
2019-01-29T20:38:06.032Z,49.05
2019-01-29T20:40:35.123Z,49.06
2019-01-29T20:43:04.277Z,48.98
2019-01-29T20:45:33.502Z,48.83
2019-01-29T20:48:02.874Z,48.91
2019-01-29T20:50:33.974Z,48.68
2019-01-29T20:53:03.075Z,48.61
2019-01-29T20:55:32.098Z,48.53
2019-01-29T20:58:01.296Z,48.51
2019-01-29T21:00:32.588Z,48.43
2019-01-29T21:03:01.685Z,48.34
2019-01-29T21:05:30.813Z,48.40
2019-01-29T21:08:00.604Z,48.27
2019-01-29T21:10:29.753Z,48.22
2019-01-29T21:12:58.726Z,48.34
2019-01-29T21:15:37.650Z,48.22
2019-01-29T21:17:58.639Z,48.27
2019-01-29T21:20:29.359Z,48.37
2019-01-29T21:22:58.276Z,48.26
2019-01-29T21:25:27.457Z,48.13
2019-01-29T21:27:56.466Z,48.15
2019-01-29T21:30:33.714Z,48.12
2019-01-29T21:33:02.745Z,48.19
2019-01-29T21:35:31.741Z,48.21
2019-01-29T21:38:00.608Z,48.18
2019-01-29T21:40:29.923Z,48.13
2019-01-29T21:42:58.906Z,48.16
2019-01-29T21:45:28.060Z,48.17
2019-01-29T21:47:58.661Z,48.24
2019-01-29T21:50:28.981Z,48.43
2019-01-29T21:52:58.062Z,48.33
2019-01-29T21:55:27.189Z,48.32
2019-01-29T21:57:56.354Z,48.28
2019-01-29T22:00:31.083Z,48.32
2019-01-29T22:03:00.141Z,48.38
2019-01-29T22:05:29.295Z,48.38
2019-01-29T22:07:58.337Z,48.37
2019-01-29T22:10:27.349Z,48.29
2019-01-29T22:12:56.398Z,48.31
2019-01-29T22:15:25.458Z,48.38
2019-01-29T22:17:54.436Z,48.37
2019-01-29T22:20:23.417Z,48.35
2019-01-29T22:22:52.417Z,48.17
2019-01-29T22:25:21.425Z,48.13
2019-01-29T22:27:50.406Z,48.19
2019-01-29T22:30:27.865Z,47.99
2019-01-29T22:32:56.902Z,48.07
2019-01-29T22:35:25.937Z,48.11
2019-01-29T22:37:56.819Z,48.10
2019-01-29T22:40:26.856Z,48.23
2019-01-29T22:42:56.516Z,48.27
2019-01-29T22:45:25.516Z,48.40
2019-01-29T22:47:54.645Z,48.36
2019-01-29T22:50:31.619Z,48.44
2019-01-29T22:53:01.408Z,48.35
2019-01-29T22:55:30.492Z,48.40
2019-01-29T22:57:59.577Z,48.24
2019-01-29T23:01:07.262Z,48.20
2019-01-29T23:03:42.563Z,48.25
2019-01-29T23:06:41.004Z,48.21
2019-01-29T23:09:11.659Z,48.21
2019-01-29T23:11:40.896Z,48.22
2019-01-29T23:14:10.026Z,48.38
2019-01-29T23:16:39.345Z,48.40
2019-01-29T23:19:08.431Z,48.36
2019-01-29T23:21:37.528Z,48.45
2019-01-29T23:24:06.788Z,48.47
2019-01-29T23:26:36.135Z,48.45
2019-01-29T23:29:05.151Z,48.42
2019-01-29T23:31:34.227Z,48.40
2019-01-29T23:34:03.246Z,48.36
2019-01-29T23:36:32.287Z,48.31
2019-01-29T23:39:01.311Z,48.37
2019-01-29T23:41:30.377Z,48.26
2019-01-29T23:43:59.456Z,48.25
2019-01-29T23:46:29.720Z,48.18
2019-01-29T23:48:58.793Z,48.18
2019-01-29T23:51:27.987Z,48.16
2019-01-29T23:53:57.032Z,47.98
2019-01-29T23:56:26.212Z,47.89
2019-01-29T23:58:55.151Z,47.81
